Detall de PIREP

Printer-friendly versionPDF version

[2010/01/16 08:52:00]
Flight IATA:CT0001
Pilot Number:041
Company ICAO:CAT
Aircraft Type:F50/A
PAX:30
Departing Airport: LEVC
Destination Airport: LEAL
Alternate Airport:LELC
Online: VATSIM
Route:ASTRO1G ASTRO1L
Flight Level:FL90
No Slew and time accel
No pause
Crash detect
Detect pilot in Cockpit between each 30 and 45 minutes
08:52 Zero fuel Weight: 35103 Lbs, Fuel Weight: 4007 Lbs
08:52 VATSIM:LEVC 160830Z 25008KT CAVOK 11/05 Q1021 NOSIG
08:52 VATSIM:LEAL 160830Z 22005KT CAVOK 11/07 Q1024 NOSIG
08:52 VOICE CATALONIAN
08:53 Parking Brakes off
09:01 Take-off
09:01 Take off Weight: 38991 Lbs
09:01 Wind: 253º @ 007 Knots Heading: 117º
09:01 POS N39º 29´ 13´´ W000º 28´ 32´´
09:01 Gear Up: 133 Knots
09:01 Flaps:1 at 134 Knots
09:01 Flaps:0 at 149 Knots
09:10 TOC
09:10 Fuel Weight: 3512 Lb
09:16 Wind:279º@025 Knots Heading: 236º Ground Speed: 233 Knots Altitude 92
97 ft
09:18 TOD
09:18 Fuel Weight: 3275 Lb
09:29 Flaps:1 at 160 Knots
09:30 Flaps:2 at 149 Knots
09:31 Wind:270º@016 Knots Heading: 189º Ground Speed: 151 Knots Altitude 5272 ft
09:32 Flaps:3 at 133 Knots
09:33 Flaps:4 at 133 Knots
09:34 Gear Down: 118 Knots
09:34 Flaps:5 at 113 Knots
09:35 Flaps:6 at 106 Knots
09:39 TouchDown:Rate -388 ft/min Speed: 92 Knots
09:39 VATSIM:LEAL 160930Z 21007KT 180V240 CAVOK 13/08 Q1024 NOSIG
09:39 Land
09:39 Wind:223º@004 Knots
09:39 Heading: 100º
09:39 Flight Duration: 00:38
09:39 Landing Weight: 37944 Lbs
09:39 POS N38º 17´ 00´´ W000º 34´ 03´´
09:42 Parking brakes on
09:42 Block to Block Duration: 00:49
09:42 Final Fuel: 2815 Lbls
09:42 Spent Fuel: 1192 Lbls
09:42 Flight Length: 125 NM
09:42 TOD Land Length: 64 NM

Exportar CSV

Powered by Drupal - Modified by Danger4k